Mississippi Valley State Col, Mississippi
Current Conditions -  °F | °C
As of 2:53 PM on Saturday 22 Nov 2014 (Local Time) from KGWO Reporting Station
Clear Clear  
Wind Chill: 69°   Ceiling: Unl
Heat Index: 69°   Visibility: 10mi
Dew Point: 47°   Wind: 13mph
Humidity: 45%   Direction: 160°SSE
Pressure: 30.07"   Gusts: NA
Location:  33.4064°N, 90.3812°W
Report Text: KGWO 222053Z AUTO 16011KT 10SM CLR 21/08 A3007 RMK AO2 SLP181 T02060083 56033 TSNO
Loading
Personal Weather Stations






























Interactive Weather Map New forecast layout! Learn more

10-Day Weather Forecast

Advertisements
Track Severe Weather on mobile